Time;durP1;ratioP1;P1;durP2;ratioP2;P2;SDS_P1;SDS_P2;PMS_P1;PMS_P2;Temp;Humidity;BMP_temperature;BMP_pressure;BME280_temperature;BME280_humidity;BME280_pressure;Samples;Min_cycle;Max_cycle;Signal;HPM_P1;HPM_P2
2023/06/08 00:01:52;;;;;;;7.93;4.22;;;11.80;99.90;;;;;;4907051;29;20052;-40
2023/06/08 00:04:19;;;;;;;9.63;3.55;;;11.80;99.90;;;;;;4899183;29;20048;-40
2023/06/08 00:06:49;;;;;;;5.95;3.97;;;11.80;99.90;;;;;;4860952;29;20127;-40
2023/06/08 00:09:18;;;;;;;5.72;3.67;;;11.80;99.90;;;;;;4876938;29;20559;-40
2023/06/08 00:11:44;;;;;;;5.90;3.65;;;11.80;99.90;;;;;;4897387;29;20048;-40
2023/06/08 00:14:10;;;;;;;7.18;3.70;;;11.80;99.90;;;;;;4894655;29;20037;-40
2023/06/08 00:16:37;;;;;;;7.68;3.65;;;11.80;99.90;;;;;;4882817;29;20079;-40
2023/06/08 00:19:03;;;;;;;6.00;3.88;;;11.80;99.90;;;;;;4899659;29;20040;-40
2023/06/08 00:21:33;;;;;;;8.60;4.80;;;11.80;99.90;;;;;;4881906;29;20081;-40
2023/06/08 00:24:03;;;;;;;7.57;4.30;;;11.80;99.90;;;;;;4864539;29;20060;-40
2023/06/08 00:26:29;;;;;;;7.75;4.30;;;11.70;99.90;;;;;;4881467;29;20075;-40
2023/06/08 00:28:54;;;;;;;6.47;4.53;;;11.70;99.90;;;;;;4891144;29;20480;-40
2023/06/08 00:31:20;;;;;;;8.30;4.95;;;11.70;99.90;;;;;;4887312;29;20048;-40
2023/06/08 00:33:46;;;;;;;10.20;5.78;;;11.70;99.90;;;;;;4882324;29;20040;-40
2023/06/08 00:36:15;;;;;;;12.52;6.45;;;11.70;99.90;;;;;;4878728;29;20040;-41
2023/06/08 00:38:41;;;;;;;10.55;7.38;;;11.70;99.90;;;;;;4884233;29;20101;-41
2023/06/08 00:41:07;;;;;;;11.63;7.05;;;11.80;99.90;;;;;;4885088;29;20044;-40
2023/06/08 00:43:33;;;;;;;9.00;6.82;;;11.80;99.90;;;;;;4890561;29;20040;-41
2023/06/08 00:46:01;;;;;;;12.82;6.63;;;11.80;99.90;;;;;;4893905;29;20040;-41
2023/06/08 00:48:28;;;;;;;11.00;6.93;;;11.80;99.90;;;;;;4892111;29;20052;-41
2023/06/08 00:50:56;;;;;;;12.83;7.47;;;11.80;99.90;;;;;;4891992;29;20115;-41
2023/06/08 00:53:22;;;;;;;8.88;5.53;;;11.90;99.90;;;;;;4893566;29;20049;-41
2023/06/08 00:55:55;;;;;;;9.07;4.85;;;11.90;99.90;;;;;;4891099;29;20483;-41
2023/06/08 00:58:21;;;;;;;7.55;5.10;;;11.90;99.90;;;;;;4887576;29;20040;-41
2023/06/08 01:00:59;;;;;;;8.30;5.00;;;11.90;99.90;;;;;;4880831;29;20047;-41
2023/06/08 01:03:33;;;;;;;8.13;4.65;;;11.90;99.90;;;;;;4878888;29;20489;-40
2023/06/08 01:06:03;;;;;;;7.57;4.72;;;11.90;99.90;;;;;;4886220;29;20080;-41
2023/06/08 01:09:11;;;;;;;9.43;4.88;;;11.90;99.90;;;;;;4920586;29;20157;-40
2023/06/08 01:11:56;;;;;;;9.63;4.90;;;11.90;99.90;;;;;;4918832;29;20055;-41
2023/06/08 01:14:42;;;;;;;8.77;3.92;;;11.90;99.90;;;;;;4917941;29;20624;-41
2023/06/08 01:17:25;;;;;;;8.20;3.97;;;11.90;99.90;;;;;;4903947;29;20039;-41
2023/06/08 01:19:54;;;;;;;6.20;3.70;;;11.90;99.90;;;;;;4918644;29;20036;-41
2023/06/08 01:22:38;;;;;;;7.03;4.78;;;11.80;99.90;;;;;;4912191;29;20488;-41
2023/06/08 01:25:05;;;;;;;10.93;5.43;;;11.90;99.90;;;;;;4904850;29;20051;-41
2023/06/08 01:27:36;;;;;;;11.70;6.35;;;11.80;99.90;;;;;;4909741;29;20452;-41
2023/06/08 01:30:14;;;;;;;11.50;6.43;;;11.90;99.90;;;;;;4903741;29;20045;-41
2023/06/08 01:32:40;;;;;;;8.70;6.78;;;11.90;99.90;;;;;;4877531;29;20444;-41
2023/06/08 01:35:06;;;;;;;10.13;6.30;;;11.80;99.90;;;;;;4910967;29;20048;-40
2023/06/08 01:38:03;;;;;;;11.48;6.05;;;11.80;99.90;;;;;;4911627;29;20127;-40
2023/06/08 01:40:43;;;;;;;10.20;6.28;;;11.80;99.90;;;;;;4893997;29;20114;-40
2023/06/08 01:43:11;;;;;;;9.25;6.00;;;11.70;99.90;;;;;;4892946;29;20491;-41
2023/06/08 01:45:45;;;;;;;9.00;6.35;;;11.70;99.90;;;;;;4912996;29;20048;-41
2023/06/08 01:48:13;;;;;;;10.50;6.00;;;11.70;99.90;;;;;;4908191;29;20103;-41
2023/06/08 01:50:39;;;;;;;;;;;11.80;99.90;;;;;;4910883;29;20040;-40
2023/06/08 01:53:05;;;;;;;10.70;6.03;;;11.80;99.90;;;;;;4895266;29;20022;-41
2023/06/08 01:55:31;;;;;;;8.48;6.05;;;11.80;99.90;;;;;;4910159;29;20044;-41
2023/06/08 01:57:57;;;;;;;10.98;6.03;;;11.80;99.90;;;;;;4878943;29;20058;-41
2023/06/08 02:00:23;;;;;;;10.40;6.22;;;11.80;99.90;;;;;;4899630;29;20043;-41
2023/06/08 02:02:49;;;;;;;10.50;6.35;;;11.80;99.90;;;;;;4908878;29;20482;-41
2023/06/08 02:05:16;;;;;;;9.73;5.47;;;11.80;99.90;;;;;;4891754;29;20154;-41
2023/06/08 02:07:43;;;;;;;9.80;6.13;;;11.80;99.90;;;;;;4909472;29;20147;-41
2023/06/08 02:10:10;;;;;;;10.53;6.57;;;11.90;99.90;;;;;;4896884;29;20300;-41
2023/06/08 02:12:36;;;;;;;8.32;4.72;;;11.90;99.90;;;;;;4916012;29;20465;-41
2023/06/08 02:15:02;;;;;;;10.52;5.25;;;11.90;99.90;;;;;;4914236;29;20567;-41
2023/06/08 02:17:33;;;;;;;10.35;4.95;;;11.90;99.90;;;;;;4907387;29;20123;-41
2023/06/08 02:20:06;;;;;;;7.00;4.95;;;11.90;99.90;;;;;;4883253;29;20062;-41
2023/06/08 02:22:32;;;;;;;9.05;4.40;;;11.90;99.90;;;;;;4900067;29;20113;-41
2023/06/08 02:24:58;;;;;;;8.33;4.70;;;11.90;99.90;;;;;;4913711;29;20040;-41
2023/06/08 02:27:24;;;;;;;13.38;4.63;;;11.90;99.90;;;;;;4909651;29;20043;-41
2023/06/08 02:29:50;;;;;;;8.13;4.60;;;12.00;99.90;;;;;;4911196;29;20146;-41
2023/06/08 02:32:16;;;;;;;9.68;5.07;;;12.00;99.90;;;;;;4905249;29;20072;-41
2023/06/08 02:34:41;;;;;;;10.38;4.93;;;11.90;99.90;;;;;;4915797;29;20124;-41
2023/06/08 02:37:07;;;;;;;9.20;5.80;;;11.90;99.90;;;;;;4903082;29;20037;-41
2023/06/08 02:39:33;;;;;;;7.97;5.80;;;12.00;99.90;;;;;;4914105;29;20123;-41
2023/06/08 02:42:30;;;;;;;8.88;5.50;;;11.90;99.90;;;;;;4901945;29;20263;-41
2023/06/08 02:44:56;;;;;;;9.40;5.30;;;11.90;99.90;;;;;;4877343;29;20124;-41
2023/06/08 02:47:21;;;;;;;12.63;5.72;;;11.90;99.90;;;;;;4900665;29;20184;-41
2023/06/08 02:49:47;;;;;;;8.18;5.50;;;12.00;99.90;;;;;;4902271;29;20392;-41
2023/06/08 02:52:13;;;;;;;9.77;5.03;;;12.00;99.90;;;;;;4863698;29;20048;-41
2023/06/08 02:54:38;;;;;;;11.35;5.10;;;12.00;99.90;;;;;;4916810;29;20044;-41
2023/06/08 02:57:06;;;;;;;9.85;5.32;;;12.00;99.90;;;;;;4915078;29;20044;-41
2023/06/08 02:59:32;;;;;;;9.40;4.68;;;12.00;99.90;;;;;;4888064;29;20107;-41
2023/06/08 03:02:02;;;;;;;6.32;4.25;;;12.00;99.90;;;;;;4913935;29;20044;-41
2023/06/08 03:04:37;;;;;;;7.63;3.90;;;12.00;99.90;;;;;;4908767;29;20107;-41
2023/06/08 03:07:03;;;;;;;6.10;4.13;;;12.00;99.90;;;;;;4916959;29;20398;-41
2023/06/08 03:09:28;;;;;;;8.40;5.00;;;12.00;99.90;;;;;;4896334;29;20036;-41
2023/06/08 03:11:55;;;;;;;10.65;4.50;;;12.10;99.90;;;;;;4896121;29;20051;-41
2023/06/08 03:14:28;;;;;;;8.32;4.07;;;12.10;99.90;;;;;;4912030;29;20047;-41
2023/06/08 03:16:57;;;;;;;8.32;3.83;;;12.10;99.90;;;;;;4913975;29;20123;-41
2023/06/08 03:19:25;;;;;;;8.48;3.70;;;12.10;99.90;;;;;;4913491;29;20040;-41
2023/06/08 03:21:51;;;;;;;7.43;3.47;;;12.10;99.90;;;;;;4915382;29;20052;-41
2023/06/08 03:24:18;;;;;;;6.28;3.30;;;12.10;99.90;;;;;;4917978;29;20111;-41
2023/06/08 03:26:43;;;;;;;6.88;3.60;;;12.10;99.90;;;;;;4880334;29;20104;-41
2023/06/08 03:29:09;;;;;;;7.70;3.83;;;12.10;99.90;;;;;;4911258;29;20491;-41
2023/06/08 03:31:37;;;;;;;6.88;3.70;;;12.10;99.90;;;;;;4918337;29;20048;-41
2023/06/08 03:34:20;;;;;;;6.45;3.25;;;12.10;99.90;;;;;;4918694;29;20392;-41
2023/06/08 03:36:46;;;;;;;7.82;3.10;;;12.20;99.90;;;;;;4912128;29;20051;-41
2023/06/08 03:39:12;;;;;;;8.25;3.25;;;12.10;99.90;;;;;;4899877;29;20051;-41
2023/06/08 03:41:38;;;;;;;7.70;3.00;;;12.20;99.90;;;;;;4917976;29;20044;-41
2023/06/08 03:44:04;;;;;;;4.90;2.95;;;12.20;99.90;;;;;;4910318;29;20047;-41
2023/06/08 03:46:31;;;;;;;6.95;3.28;;;12.20;99.90;;;;;;4891501;29;20287;-41
2023/06/08 03:48:56;;;;;;;6.60;3.65;;;12.20;99.90;;;;;;4901300;29;20074;-41
2023/06/08 03:51:22;;;;;;;8.02;3.58;;;12.20;99.90;;;;;;4913923;29;20040;-41
2023/06/08 03:53:49;;;;;;;7.32;3.80;;;12.20;99.90;;;;;;4905228;29;20135;-41
2023/06/08 03:56:15;;;;;;;9.30;4.18;;;12.20;99.90;;;;;;4919270;29;20047;-41
2023/06/08 03:58:41;;;;;;;8.60;4.30;;;12.20;99.90;;;;;;4901448;29;20532;-41
2023/06/08 04:01:10;;;;;;;7.90;4.50;;;12.20;99.90;;;;;;4895961;29;20048;-41
2023/06/08 04:03:36;;;;;;;6.82;4.50;;;12.30;99.90;;;;;;4914563;29;20060;-41
2023/06/08 04:06:02;;;;;;;5.93;4.00;;;12.20;99.90;;;;;;4915755;29;20123;-41
2023/06/08 04:08:31;;;;;;;10.45;4.35;;;12.20;99.90;;;;;;4913255;29;20448;-41
2023/06/08 04:10:58;;;;;;;10.57;4.65;;;12.30;99.90;;;;;;4888604;29;20043;-41
2023/06/08 04:13:24;;;;;;;7.15;4.18;;;12.30;99.90;;;;;;4915679;29;20047;-41
2023/06/08 04:15:49;;;;;;;6.70;3.95;;;12.30;99.90;;;;;;4897637;29;20051;-41
2023/06/08 04:18:16;;;;;;;9.55;4.10;;;12.30;99.90;;;;;;4897739;29;20054;-41
2023/06/08 04:20:42;;;;;;;7.18;3.88;;;12.30;99.90;;;;;;4879453;29;20052;-41
2023/06/08 04:23:11;;;;;;;8.55;3.80;;;12.40;99.90;;;;;;4916607;29;20059;-41
2023/06/08 04:25:36;;;;;;;10.93;3.55;;;12.40;99.90;;;;;;4914267;29;20071;-41
2023/06/08 04:28:03;;;;;;;8.38;3.95;;;12.40;99.90;;;;;;4916918;29;20457;-41
2023/06/08 04:30:29;;;;;;;8.73;3.77;;;12.40;99.90;;;;;;4917028;29;20040;-41
2023/06/08 04:32:59;;;;;;;8.25;3.67;;;12.40;99.90;;;;;;4913870;29;20411;-41
2023/06/08 04:35:25;;;;;;;7.03;2.95;;;12.50;99.90;;;;;;4883012;29;20425;-41
2023/06/08 04:37:51;;;;;;;8.95;4.18;;;12.50;99.90;;;;;;4911321;29;20088;-41
2023/06/08 04:40:19;;;;;;;7.45;4.13;;;12.50;99.90;;;;;;4891827;29;20566;-41
2023/06/08 04:42:46;;;;;;;7.13;3.67;;;12.60;99.90;;;;;;4893082;29;20135;-41
2023/06/08 04:45:23;;;;;;;8.27;3.55;;;12.60;99.90;;;;;;4908372;29;20032;-41
2023/06/08 04:47:49;;;;;;;7.63;3.28;;;12.60;99.90;;;;;;4916339;29;20122;-41
2023/06/08 04:50:14;;;;;;;8.05;4.15;;;12.60;99.90;;;;;;4887112;29;20135;-41
2023/06/08 04:52:41;;;;;;;9.23;3.72;;;12.60;99.90;;;;;;4911844;29;20040;-41
2023/06/08 04:55:16;;;;;;;9.80;4.25;;;12.60;99.90;;;;;;4904460;29;20115;-41
2023/06/08 04:57:42;;;;;;;8.23;3.20;;;12.70;99.90;;;;;;4911626;29;20111;-41
2023/06/08 05:00:27;;;;;;;9.98;4.47;;;12.70;99.90;;;;;;4911573;29;20118;-41
2023/06/08 05:03:02;;;;;;;6.93;3.83;;;12.70;99.90;;;;;;4911816;29;20059;-41
2023/06/08 05:05:33;;;;;;;9.23;3.90;;;12.70;99.90;;;;;;4919398;29;20116;-41
2023/06/08 05:07:59;;;;;;;14.77;4.03;;;12.70;99.90;;;;;;4907872;29;20048;-41
2023/06/08 05:10:25;;;;;;;10.10;3.40;;;12.70;99.90;;;;;;4905324;29;20051;-41
2023/06/08 05:12:52;;;;;;;6.65;3.40;;;12.80;99.90;;;;;;4905037;29;20579;-41
2023/06/08 05:15:18;;;;;;;10.13;4.38;;;12.80;99.90;;;;;;4903665;29;20039;-41
2023/06/08 05:17:44;;;;;;;7.50;3.17;;;12.80;99.90;;;;;;4911191;29;20044;-41
2023/06/08 05:20:10;;;;;;;9.10;3.35;;;12.80;99.90;;;;;;4896732;29;20058;-41
2023/06/08 05:22:36;;;;;;;8.88;3.30;;;12.90;99.90;;;;;;4907268;29;20641;-41
2023/06/08 05:25:01;;;;;;;8.07;3.55;;;12.90;99.90;;;;;;4910947;29;20055;-41
2023/06/08 05:27:30;;;;;;;7.15;3.03;;;13.00;99.90;;;;;;4892760;29;20122;-41
2023/06/08 05:29:56;;;;;;;7.47;3.33;;;13.00;99.90;;;;;;4907335;29;20048;-41
2023/06/08 05:32:22;;;;;;;12.68;3.60;;;13.00;99.90;;;;;;4901475;29;20432;-41
2023/06/08 05:34:47;;;;;;;5.10;3.22;;;13.10;99.90;;;;;;4911768;29;20037;-42
2023/06/08 05:37:14;;;;;;;7.18;3.92;;;13.10;99.90;;;;;;4895707;29;20044;-41
2023/06/08 05:39:43;;;;;;;6.20;3.70;;;13.20;99.90;;;;;;4901675;29;20040;-41
2023/06/08 05:42:08;;;;;;;6.97;3.17;;;13.20;99.90;;;;;;4907908;29;20175;-41
2023/06/08 05:44:34;;;;;;;9.43;4.05;;;13.20;99.90;;;;;;4904510;29;20075;-41
2023/06/08 05:47:00;;;;;;;10.18;4.93;;;13.20;99.90;;;;;;4917765;29;20036;-41
2023/06/08 05:49:26;;;;;;;5.72;3.20;;;13.20;99.90;;;;;;4893742;29;20237;-41
2023/06/08 05:51:52;;;;;;;8.50;3.97;;;13.20;99.90;;;;;;4887153;29;20079;-41
2023/06/08 05:54:17;;;;;;;7.00;3.80;;;13.30;99.90;;;;;;4909775;29;20036;-41
2023/06/08 05:56:46;;;;;;;5.97;3.03;;;13.30;99.90;;;;;;4917279;29;20257;-41
2023/06/08 05:59:12;;;;;;;8.38;3.13;;;13.30;99.90;;;;;;4887085;29;20107;-41
2023/06/08 06:01:38;;;;;;;6.43;3.38;;;13.40;99.90;;;;;;4896589;29;20040;-41
2023/06/08 06:04:04;;;;;;;6.38;3.10;;;13.50;99.90;;;;;;4904214;29;20103;-41
2023/06/08 06:06:32;;;;;;;7.25;3.60;;;13.60;99.90;;;;;;4900721;29;20425;-41
2023/06/08 06:08:58;;;;;;;8.55;3.53;;;13.60;99.90;;;;;;4891387;29;20044;-41
2023/06/08 06:11:25;;;;;;;9.57;4.22;;;13.70;99.90;;;;;;4888373;29;20432;-41
2023/06/08 06:13:51;;;;;;;;;;;13.80;99.90;;;;;;4889493;29;20131;-41
2023/06/08 06:16:17;;;;;;;7.15;3.22;;;13.90;99.90;;;;;;4883339;29;19970;-41
2023/06/08 06:18:46;;;;;;;7.28;3.35;;;14.10;99.90;;;;;;4885592;29;20045;-41
2023/06/08 06:21:13;;;;;;;9.02;2.60;;;14.20;99.90;;;;;;4870603;29;20044;-41
2023/06/08 06:23:39;;;;;;;6.03;2.70;;;14.30;99.90;;;;;;4891053;29;20044;-41
2023/06/08 06:26:05;;;;;;;4.50;2.70;;;14.40;99.90;;;;;;4884304;29;20152;-41
2023/06/08 06:28:31;;;;;;;8.75;2.58;;;14.40;99.90;;;;;;4893758;29;20045;-42
2023/06/08 06:30:57;;;;;;;6.85;2.92;;;14.50;99.90;;;;;;4886887;29;20124;-41
2023/06/08 06:33:23;;;;;;;9.52;3.40;;;14.50;99.90;;;;;;4889138;29;20302;-41
2023/06/08 06:35:50;;;;;;;8.02;3.45;;;14.60;99.90;;;;;;4876912;29;20048;-41
2023/06/08 06:38:16;;;;;;;;;;;14.60;99.90;;;;;;4900226;29;20049;-41
2023/06/08 06:40:42;;;;;;;6.93;3.05;;;14.70;99.90;;;;;;4902772;29;19930;-41
2023/06/08 06:43:08;;;;;;;7.43;2.95;;;14.90;99.90;;;;;;4876664;29;20152;-41
2023/06/08 06:45:38;;;;;;;7.47;3.33;;;15.00;99.90;;;;;;4891673;29;20040;-41
2023/06/08 06:48:04;;;;;;;5.38;2.65;;;15.20;99.90;;;;;;4893917;29;20165;-41
2023/06/08 06:50:30;;;;;;;7.85;2.60;;;15.30;99.90;;;;;;4895361;29;20119;-41
2023/06/08 06:52:56;;;;;;;9.00;2.70;;;15.50;99.90;;;;;;4895097;29;20044;-41
2023/06/08 06:55:21;;;;;;;7.15;2.92;;;15.70;99.90;;;;;;4895972;29;20066;-41
2023/06/08 06:57:48;;;;;;;7.47;2.83;;;16.20;99.90;;;;;;4895380;29;20041;-41
2023/06/08 07:00:14;;;;;;;9.10;3.10;;;17.00;99.90;;;;;;4894361;29;20053;-42
2023/06/08 07:02:40;;;;;;;6.47;2.40;;;19.10;99.90;;;;;;4894039;29;20048;-42
2023/06/08 07:05:07;;;;;;;5.80;2.22;;;19.10;99.90;;;;;;4897244;29;20479;-42
2023/06/08 07:07:34;;;;;;;9.13;2.50;;;19.90;99.90;;;;;;4898773;29;20058;-42
2023/06/08 07:10:00;;;;;;;6.50;2.78;;;20.80;99.90;;;;;;4914405;29;20048;-43
2023/06/08 07:12:28;;;;;;;7.50;3.00;;;21.30;99.90;;;;;;4916270;29;20048;-42
2023/06/08 07:14:53;;;;;;;4.97;2.33;;;21.70;99.90;;;;;;4914122;29;20044;-42
2023/06/08 07:17:19;;;;;;;5.85;2.40;;;22.00;99.90;;;;;;4895448;29;20047;-42
2023/06/08 07:19:46;;;;;;;6.13;2.80;;;22.10;99.90;;;;;;4906736;29;20108;-42
2023/06/08 07:22:12;;;;;;;6.80;2.30;;;22.30;99.90;;;;;;4918918;29;20052;-42
2023/06/08 07:24:37;;;;;;;5.53;2.35;;;22.40;99.90;;;;;;4891035;29;20055;-42
2023/06/08 07:27:03;;;;;;;4.57;2.42;;;22.50;99.90;;;;;;4906182;29;20047;-42
2023/06/08 07:29:29;;;;;;;4.43;2.03;;;22.70;99.90;;;;;;4904873;29;20063;-42
2023/06/08 07:31:56;;;;;;;5.50;2.50;;;22.80;99.90;;;;;;4895727;29;20550;-42
2023/06/08 07:34:22;;;;;;;5.93;2.08;;;23.00;99.90;;;;;;4908830;29;20066;-42
2023/06/08 07:36:48;;;;;;;6.50;2.30;;;23.30;99.90;;;;;;4915042;29;20044;-42
2023/06/08 07:39:14;;;;;;;5.20;2.20;;;23.30;99.90;;;;;;4908387;29;20075;-42
2023/06/08 07:41:39;;;;;;;6.30;2.50;;;23.40;99.90;;;;;;4894030;29;20045;-42
2023/06/08 07:44:05;;;;;;;7.33;2.97;;;23.30;99.90;;;;;;4909912;29;20165;-42
2023/06/08 07:46:34;;;;;;;6.13;2.63;;;23.40;99.90;;;;;;4902114;29;20099;-42
2023/06/08 07:49:02;;;;;;;5.03;2.85;;;23.40;99.90;;;;;;4905941;29;20110;-42
2023/06/08 07:51:28;;;;;;;7.40;3.13;;;23.30;99.90;;;;;;4897693;29;20056;-42
2023/06/08 07:53:54;;;;;;;7.65;2.95;;;23.20;99.90;;;;;;4913125;29;20104;-42
2023/06/08 07:56:21;;;;;;;6.35;2.53;;;23.10;99.90;;;;;;4911297;29;20214;-42
2023/06/08 07:58:47;;;;;;;;;;;23.10;99.90;;;;;;4892921;29;20048;-42
2023/06/08 08:01:12;;;;;;;5.13;2.58;;;22.80;99.20;;;;;;4911558;29;20010;-42
2023/06/08 08:03:38;;;;;;;5.20;2.80;;;22.30;99.90;;;;;;4919965;29;20135;-42
2023/06/08 08:06:05;;;;;;;7.53;2.60;;;21.60;99.90;;;;;;4914279;29;20131;-42
2023/06/08 08:08:31;;;;;;;5.72;2.13;;;21.10;99.90;;;;;;4883140;29;20051;-42
2023/06/08 08:10:56;;;;;;;7.43;2.58;;;20.70;99.90;;;;;;4912832;29;20465;-42
2023/06/08 08:13:22;;;;;;;7.78;3.13;;;20.40;99.90;;;;;;4909202;29;20697;-42
2023/06/08 08:15:48;;;;;;;4.55;2.22;;;20.30;99.90;;;;;;4912750;29;20051;-41
2023/06/08 08:18:14;;;;;;;4.35;1.98;;;20.20;99.90;;;;;;4916930;29;20036;-41
2023/06/08 08:20:40;;;;;;;6.70;2.00;;;20.20;99.90;;;;;;4915574;29;20044;-41
2023/06/08 08:23:06;;;;;;;4.80;2.50;;;20.40;99.90;;;;;;4910331;29;20531;-41
2023/06/08 08:25:33;;;;;;;6.78;2.40;;;20.70;99.90;;;;;;4892818;29;20048;-41
2023/06/08 08:27:58;;;;;;;5.68;2.70;;;20.90;99.90;;;;;;4911657;29;20120;-41
2023/06/08 08:30:30;;;;;;;7.47;2.70;;;20.80;99.90;;;;;;4912655;29;20052;-41
2023/06/08 08:32:56;;;;;;;4.03;2.40;;;20.70;99.90;;;;;;4912326;29;20051;-41
2023/06/08 08:35:28;;;;;;;7.00;2.20;;;20.60;99.90;;;;;;4910846;29;20036;-42
2023/06/08 08:37:54;;;;;;;7.03;2.80;;;20.60;99.90;;;;;;4911352;29;20091;-41
2023/06/08 08:40:19;;;;;;;6.10;2.65;;;20.50;99.90;;;;;;4905428;29;20123;-41
2023/06/08 08:42:53;;;;;;;6.57;2.72;;;20.40;99.90;;;;;;4901802;29;20475;-41
2023/06/08 08:45:22;;;;;;;7.53;2.88;;;20.30;99.90;;;;;;4911048;29;20078;-41
2023/06/08 08:47:50;;;;;;;6.30;2.55;;;20.20;99.90;;;;;;4894647;29;20701;-41
2023/06/08 08:50:17;;;;;;;7.32;2.30;;;20.20;99.90;;;;;;4909343;29;20052;-42
2023/06/08 08:52:48;;;;;;;4.82;2.40;;;20.50;99.90;;;;;;4917985;29;20066;-41
2023/06/08 08:55:13;;;;;;;6.25;2.40;;;21.00;99.90;;;;;;4910753;29;20067;-41
2023/06/08 08:57:41;;;;;;;4.45;2.22;;;21.30;99.90;;;;;;4894465;29;20082;-42
2023/06/08 09:00:10;;;;;;;6.00;3.60;;;21.60;99.90;;;;;;4900715;29;20040;-41
2023/06/08 09:02:36;;;;;;;6.18;2.63;;;21.50;99.90;;;;;;4916912;29;20047;-41
2023/06/08 09:05:05;;;;;;;4.90;2.60;;;21.20;99.90;;;;;;4912809;29;20056;-41
2023/06/08 09:07:31;;;;;;;6.28;2.90;;;21.30;99.90;;;;;;4896585;29;20055;-42
2023/06/08 09:10:35;;;;;;;8.20;3.03;;;21.50;99.90;;;;;;4889374;29;20051;-41
2023/06/08 09:13:02;;;;;;;8.23;2.85;;;21.60;99.90;;;;;;4910448;29;20458;-41
2023/06/08 09:15:30;;;;;;;5.90;2.65;;;21.70;99.90;;;;;;4910021;29;20054;-42
2023/06/08 09:17:58;;;;;;;7.82;2.70;;;21.80;99.90;;;;;;4911892;29;20044;-41
2023/06/08 09:20:41;;;;;;;7.28;2.92;;;21.80;99.90;;;;;;4904865;29;20055;-42
2023/06/08 09:23:27;;;;;;;7.97;3.15;;;21.70;99.90;;;;;;4909587;29;20040;-42
2023/06/08 09:25:53;;;;;;;9.57;2.97;;;21.50;99.90;;;;;;4912850;29;20071;-41
2023/06/08 09:28:43;;;;;;;5.28;2.28;;;21.20;99.90;;;;;;4911298;29;20040;-42
2023/06/08 09:31:09;;;;;;;7.80;2.17;;;21.10;99.90;;;;;;4894461;29;20495;-41
2023/06/08 09:33:38;;;;;;;6.13;2.30;;;21.00;99.90;;;;;;4891067;29;20076;-42
2023/06/08 09:36:06;;;;;;;5.72;2.35;;;20.90;99.90;;;;;;4914316;29;20096;-41
2023/06/08 09:38:33;;;;;;;6.85;3.15;;;20.80;99.90;;;;;;4910192;29;20052;-41
2023/06/08 09:41:20;;;;;;;5.30;2.25;;;20.70;99.90;;;;;;4879716;29;20047;-41
2023/06/08 09:43:48;;;;;;;5.25;2.30;;;20.60;99.90;;;;;;4906854;29;20048;-41
2023/06/08 09:46:48;;;;;;;8.07;2.15;;;20.60;99.90;;;;;;4910862;29;20044;-41
2023/06/08 09:49:15;;;;;;;6.13;2.55;;;20.60;99.90;;;;;;4911269;29;20043;-41
2023/06/08 09:51:49;;;;;;;6.60;2.30;;;20.50;99.90;;;;;;4914036;29;20048;-41
2023/06/08 09:54:16;;;;;;;6.40;2.40;;;20.60;99.90;;;;;;4911355;29;20040;-41
2023/06/08 09:56:55;;;;;;;5.45;2.70;;;20.70;99.90;;;;;;4906584;29;20058;-41
2023/06/08 09:59:31;;;;;;;5.55;2.50;;;20.80;99.90;;;;;;4906845;29;20040;-41
2023/06/08 10:02:25;;;;;;;4.80;2.40;;;20.70;99.90;;;;;;4912961;29;20055;-41
2023/06/08 10:04:55;;;;;;;7.05;2.33;;;20.70;99.90;;;;;;4902850;29;20055;-41
2023/06/08 10:07:29;;;;;;;5.88;2.55;;;20.70;99.90;;;;;;4916595;29;20032;-41
2023/06/08 10:10:05;;;;;;;6.88;2.47;;;20.70;99.90;;;;;;4909295;29;20055;-41
2023/06/08 10:12:31;;;;;;;5.82;2.17;;;20.70;99.90;;;;;;4890234;29;20108;-41
2023/06/08 10:14:58;;;;;;;5.50;2.60;;;20.70;99.90;;;;;;4909902;29;20040;-41
2023/06/08 10:17:26;;;;;;;5.80;2.30;;;20.80;99.90;;;;;;4917155;29;20485;-42
2023/06/08 10:19:53;;;;;;;5.40;2.00;;;20.90;99.90;;;;;;4913958;29;20084;-41
2023/06/08 10:22:42;;;;;;;3.72;1.95;;;21.00;99.90;;;;;;4893892;29;20051;-42
2023/06/08 10:25:16;;;;;;;6.80;2.50;;;21.10;99.90;;;;;;4911314;29;20040;-42
2023/06/08 10:27:49;;;;;;;6.70;2.10;;;21.20;99.90;;;;;;4893591;29;20274;-42
2023/06/08 10:30:41;;;;;;;4.45;2.20;;;21.30;99.90;;;;;;4911550;29;20139;-41
2023/06/08 10:33:20;;;;;;;6.97;2.42;;;21.20;99.90;;;;;;4888300;29;20051;-42
2023/06/08 10:36:07;;;;;;;5.82;2.15;;;21.30;99.90;;;;;;4910117;29;20324;-41
2023/06/08 10:38:54;;;;;;;3.78;1.70;;;21.40;99.90;;;;;;4908353;29;20056;-41
2023/06/08 10:41:52;;;;;;;4.15;1.85;;;21.30;99.90;;;;;;4910321;29;20055;-41
2023/06/08 10:44:32;;;;;;;6.82;2.22;;;21.30;99.90;;;;;;4915868;29;20040;-41
2023/06/08 10:47:20;;;;;;;4.13;2.03;;;21.20;99.90;;;;;;4908358;29;20539;-41
2023/06/08 10:49:55;;;;;;;5.75;1.85;;;21.10;99.90;;;;;;4912622;29;20059;-41
2023/06/08 10:52:22;;;;;;;6.05;2.10;;;21.00;99.90;;;;;;4917008;29;20288;-41
2023/06/08 10:54:59;;;;;;;4.70;1.85;;;21.00;99.90;;;;;;4911614;29;20050;-41
2023/06/08 10:57:49;;;;;;;4.43;2.03;;;21.00;99.90;;;;;;4886933;29;20040;-41
2023/06/08 11:00:24;;;;;;;4.55;2.10;;;21.10;99.90;;;;;;4912078;29;20503;-41
2023/06/08 11:02:56;;;;;;;6.70;2.30;;;21.20;99.90;;;;;;4895661;29;20507;-41
2023/06/08 11:05:25;;;;;;;5.72;2.10;;;21.30;99.90;;;;;;4908645;29;20528;-41
2023/06/08 11:07:56;;;;;;;5.38;2.00;;;21.40;99.90;;;;;;4901001;29;20048;-41
2023/06/08 11:10:22;;;;;;;4.75;1.90;;;21.40;99.90;;;;;;4890796;29;20099;-41
2023/06/08 11:12:48;;;;;;;5.93;2.22;;;21.50;99.90;;;;;;4906304;29;20051;-41
2023/06/08 11:15:14;;;;;;;5.10;2.00;;;21.50;99.90;;;;;;4914500;29;20040;-41
2023/06/08 11:17:59;;;;;;;3.72;1.75;;;21.60;99.90;;;;;;4892987;29;20091;-41
2023/06/08 11:20:27;;;;;;;6.38;2.63;;;21.70;99.90;;;;;;4887985;29;20511;-41
2023/06/08 11:22:53;;;;;;;5.65;2.72;;;21.70;99.90;;;;;;4907461;29;20473;-41
2023/06/08 11:25:23;;;;;;;6.32;2.88;;;21.60;99.90;;;;;;4896132;29;20066;-41
2023/06/08 11:27:55;;;;;;;3.33;1.98;;;21.30;99.90;;;;;;4903517;29;20575;-41
2023/06/08 11:30:46;;;;;;;5.20;2.25;;;21.20;99.90;;;;;;4915480;29;20048;-41
2023/06/08 11:33:33;;;;;;;5.25;2.80;;;21.20;99.90;;;;;;4908978;29;20069;-41
2023/06/08 11:35:58;;;;;;;5.78;2.20;;;21.10;99.90;;;;;;4901947;29;20040;-41
2023/06/08 11:38:25;;;;;;;4.57;2.17;;;21.10;99.90;;;;;;4910155;29;20077;-41
2023/06/08 11:40:51;;;;;;;3.88;1.90;;;21.10;99.90;;;;;;4912354;29;20393;-41
2023/06/08 11:43:16;;;;;;;5.05;1.90;;;21.10;99.90;;;;;;4894277;29;20040;-41
2023/06/08 11:45:42;;;;;;;4.38;1.73;;;21.00;99.90;;;;;;4907903;29;20400;-41
2023/06/08 11:48:08;;;;;;;5.63;2.00;;;20.90;99.90;;;;;;4909809;29;20391;-41
2023/06/08 11:50:48;;;;;;;3.65;1.73;;;20.90;99.90;;;;;;4897630;29;20288;-41
2023/06/08 11:53:23;;;;;;;5.15;2.17;;;20.90;99.90;;;;;;4904302;29;20508;-41
2023/06/08 11:55:51;;;;;;;7.60;2.40;;;20.90;99.90;;;;;;4900237;29;20123;-41
2023/06/08 11:58:17;;;;;;;4.18;1.88;;;20.90;99.90;;;;;;4913049;29;20407;-41
2023/06/08 12:00:43;;;;;;;4.57;2.08;;;20.80;99.90;;;;;;4911967;29;20347;-41
2023/06/08 12:03:09;;;;;;;5.65;1.95;;;20.80;99.90;;;;;;4911366;29;20043;-38
2023/06/08 12:05:37;;;;;;;3.30;1.57;;;20.70;99.90;;;;;;4907665;29;20057;-41
2023/06/08 12:08:09;;;;;;;4.30;2.00;;;20.70;99.90;;;;;;4907454;29;20171;-41
2023/06/08 12:10:41;;;;;;;7.45;1.95;;;20.60;99.90;;;;;;4892202;29;20052;-41
2023/06/08 12:13:12;;;;;;;4.65;2.00;;;20.60;99.90;;;;;;4912846;29;20048;-41
2023/06/08 12:15:46;;;;;;;4.00;1.85;;;20.60;99.90;;;;;;4899427;29;20078;-41
2023/06/08 12:18:16;;;;;;;6.82;2.13;;;20.50;99.90;;;;;;4885485;29;20355;-41
2023/06/08 12:20:43;;;;;;;3.65;2.00;;;20.50;99.90;;;;;;4912557;29;20032;-41
2023/06/08 12:23:10;;;;;;;4.93;2.17;;;20.40;99.90;;;;;;4905984;29;20044;-41
2023/06/08 12:25:36;;;;;;;4.90;2.25;;;20.30;99.90;;;;;;4906908;29;20048;-41
2023/06/08 12:28:02;;;;;;;3.17;1.67;;;20.20;99.90;;;;;;4905607;29;20044;-41
2023/06/08 12:30:28;;;;;;;6.15;2.58;;;20.20;99.90;;;;;;4905445;29;20533;-41
2023/06/08 12:32:56;;;;;;;3.28;1.70;;;20.10;99.90;;;;;;4903925;29;20072;-41
2023/06/08 12:35:23;;;;;;;6.43;2.10;;;20.00;99.90;;;;;;4873577;29;20048;-41
2023/06/08 12:37:49;;;;;;;4.25;1.52;;;20.00;99.90;;;;;;4905392;29;20048;-41
2023/06/08 12:40:16;;;;;;;4.40;1.70;;;19.90;99.90;;;;;;4913411;29;20103;-41
2023/06/08 12:42:46;;;;;;;4.63;1.90;;;19.80;99.90;;;;;;4907201;29;20479;-41
2023/06/08 12:45:13;;;;;;;4.50;1.92;;;19.80;99.90;;;;;;4890462;29;20046;-41
2023/06/08 12:47:39;;;;;;;3.83;1.48;;;19.70;99.90;;;;;;4910154;29;20054;-41
2023/06/08 12:50:07;;;;;;;6.43;1.55;;;19.60;99.90;;;;;;4911061;29;20044;-41
2023/06/08 12:52:41;;;;;;;4.82;1.73;;;19.60;99.90;;;;;;4908482;29;20145;-41
2023/06/08 12:55:17;;;;;;;4.47;1.63;;;19.50;99.90;;;;;;4900488;29;20041;-41
2023/06/08 12:57:43;;;;;;;5.70;2.10;;;19.40;99.90;;;;;;4907803;29;20110;-41
2023/06/08 13:00:11;;;;;;;5.90;1.90;;;19.40;99.90;;;;;;4901579;29;20054;-41